sensor_id;sensor_type;location;lat;lon;timestamp;pressure;altitude;pressure_sealevel;temperature;humidity
19447;BME280;9862;49.462;11.054;2024-03-06T00:00:01;98012.72;;;9.88;100.00
19447;BME280;9862;49.462;11.054;2024-03-06T00:02:28;98016.59;;;9.92;100.00
19447;BME280;9862;49.462;11.054;2024-03-06T00:04:55;98013.13;;;9.98;100.00
19447;BME280;9862;49.462;11.054;2024-03-06T00:07:21;98028.47;;;9.90;100.00
19447;BME280;9862;49.462;11.054;2024-03-06T00:09:50;98029.50;;;9.89;100.00
19447;BME280;9862;49.462;11.054;2024-03-06T00:12:18;98029.28;;;9.84;100.00
19447;BME280;9862;49.462;11.054;2024-03-06T00:14:45;98038.47;;;9.81;100.00
19447;BME280;9862;49.462;11.054;2024-03-06T00:17:12;98032.16;;;9.89;100.00
19447;BME280;9862;49.462;11.054;2024-03-06T00:19:38;98038.09;;;10.04;100.00
19447;BME280;9862;49.462;11.054;2024-03-06T00:22:05;98041.38;;;10.06;100.00
19447;BME280;9862;49.462;11.054;2024-03-06T00:24:32;98035.22;;;10.12;100.00
19447;BME280;9862;49.462;11.054;2024-03-06T00:27:00;98042.63;;;10.23;100.00
19447;BME280;9862;49.462;11.054;2024-03-06T00:29:27;98051.22;;;10.25;100.00
19447;BME280;9862;49.462;11.054;2024-03-06T00:31:53;98048.94;;;10.29;100.00
19447;BME280;9862;49.462;11.054;2024-03-06T00:34:20;98046.69;;;10.32;100.00
19447;BME280;9862;49.462;11.054;2024-03-06T00:36:46;98060.59;;;10.48;100.00
19447;BME280;9862;49.462;11.054;2024-03-06T00:39:13;98056.06;;;10.42;100.00
19447;BME280;9862;49.462;11.054;2024-03-06T00:41:41;98064.28;;;10.53;100.00
19447;BME280;9862;49.462;11.054;2024-03-06T00:44:09;98069.00;;;10.45;100.00
19447;BME280;9862;49.462;11.054;2024-03-06T00:46:35;98065.50;;;10.38;100.00
19447;BME280;9862;49.462;11.054;2024-03-06T00:49:02;98070.84;;;10.38;100.00
19447;BME280;9862;49.462;11.054;2024-03-06T00:51:29;98076.97;;;10.31;100.00
19447;BME280;9862;49.462;11.054;2024-03-06T00:53:56;98067.13;;;10.19;100.00
19447;BME280;9862;49.462;11.054;2024-03-06T00:56:22;98065.06;;;10.21;100.00
19447;BME280;9862;49.462;11.054;2024-03-06T00:58:49;98063.44;;;10.13;100.00
19447;BME280;9862;49.462;11.054;2024-03-06T01:01:17;98066.94;;;10.07;100.00
19447;BME280;9862;49.462;11.054;2024-03-06T01:03:44;98063.22;;;10.01;100.00
19447;BME280;9862;49.462;11.054;2024-03-06T01:06:10;98053.22;;;9.97;100.00
19447;BME280;9862;49.462;11.054;2024-03-06T01:08:37;98053.84;;;9.99;100.00
19447;BME280;9862;49.462;11.054;2024-03-06T01:11:04;98058.94;;;9.94;100.00
19447;BME280;9862;49.462;11.054;2024-03-06T01:13:31;98067.50;;;9.83;100.00
19447;BME280;9862;49.462;11.054;2024-03-06T01:15:57;98057.91;;;9.75;100.00
19447;BME280;9862;49.462;11.054;2024-03-06T01:18:25;98052.59;;;9.75;100.00
19447;BME280;9862;49.462;11.054;2024-03-06T01:20:52;98056.88;;;9.83;100.00
19447;BME280;9862;49.462;11.054;2024-03-06T01:23:19;98054.84;;;9.85;100.00
19447;BME280;9862;49.462;11.054;2024-03-06T01:25:45;98049.53;;;9.85;100.00
19447;BME280;9862;49.462;11.054;2024-03-06T01:28:12;98041.75;;;9.83;100.00
19447;BME280;9862;49.462;11.054;2024-03-06T01:30:39;98043.19;;;9.79;100.00
19447;BME280;9862;49.462;11.054;2024-03-06T01:33:05;98041.13;;;9.74;100.00
19447;BME280;9862;49.462;11.054;2024-03-06T01:35:33;98046.66;;;9.66;100.00
19447;BME280;9862;49.462;11.054;2024-03-06T01:38:00;98045.03;;;9.65;100.00
19447;BME280;9862;49.462;11.054;2024-03-06T01:40:27;98050.94;;;9.61;100.00
19447;BME280;9862;49.462;11.054;2024-03-06T01:42:54;98059.09;;;9.59;100.00
19447;BME280;9862;49.462;11.054;2024-03-06T01:45:21;98049.69;;;9.63;100.00
19447;BME280;9862;49.462;11.054;2024-03-06T01:47:47;98049.50;;;9.71;100.00
19447;BME280;9862;49.462;11.054;2024-03-06T01:50:16;98052.59;;;9.68;100.00
19447;BME280;9862;49.462;11.054;2024-03-06T01:52:45;98057.69;;;9.70;100.00
19447;BME280;9862;49.462;11.054;2024-03-06T01:55:13;98060.13;;;9.71;100.00
19447;BME280;9862;49.462;11.054;2024-03-06T01:57:40;98058.91;;;9.67;100.00
19447;BME280;9862;49.462;11.054;2024-03-06T02:00:09;98064.22;;;9.74;100.00
19447;BME280;9862;49.462;11.054;2024-03-06T02:02:40;98071.78;;;9.70;100.00
19447;BME280;9862;49.462;11.054;2024-03-06T02:05:07;98078.13;;;9.69;100.00
19447;BME280;9862;49.462;11.054;2024-03-06T02:07:33;98071.38;;;9.73;100.00
19447;BME280;9862;49.462;11.054;2024-03-06T02:10:03;98066.72;;;9.75;100.00
19447;BME280;9862;49.462;11.054;2024-03-06T02:12:32;98060.56;;;9.82;100.00
19447;BME280;9862;49.462;11.054;2024-03-06T02:14:59;98063.41;;;9.73;100.00
19447;BME280;9862;49.462;11.054;2024-03-06T02:17:25;98054.00;;;9.58;100.00
19447;BME280;9862;49.462;11.054;2024-03-06T02:19:55;98052.38;;;9.57;100.00
19447;BME280;9862;49.462;11.054;2024-03-06T02:22:24;98054.38;;;9.48;100.00
19447;BME280;9862;49.462;11.054;2024-03-06T02:24:51;98047.44;;;9.47;100.00
19447;BME280;9862;49.462;11.054;2024-03-06T02:27:21;98040.66;;;9.38;100.00
19447;BME280;9862;49.462;11.054;2024-03-06T02:29:48;98037.59;;;9.28;100.00
19447;BME280;9862;49.462;11.054;2024-03-06T02:32:14;98025.31;;;9.27;100.00
19447;BME280;9862;49.462;11.054;2024-03-06T02:34:43;98030.00;;;9.18;100.00
19447;BME280;9862;49.462;11.054;2024-03-06T02:37:10;98028.50;;;9.02;100.00
19447;BME280;9862;49.462;11.054;2024-03-06T02:39:38;98035.81;;;8.94;100.00
19447;BME280;9862;49.462;11.054;2024-03-06T02:42:04;98037.88;;;8.98;100.00
19447;BME280;9862;49.462;11.054;2024-03-06T02:44:32;98038.31;;;9.02;100.00
19447;BME280;9862;49.462;11.054;2024-03-06T02:46:59;98028.28;;;9.04;100.00
19447;BME280;9862;49.462;11.054;2024-03-06T02:49:26;98026.47;;;9.04;100.00
19447;BME280;9862;49.462;11.054;2024-03-06T02:51:53;98021.81;;;9.20;100.00
19447;BME280;9862;49.462;11.054;2024-03-06T02:54:20;98023.25;;;9.22;100.00
19447;BME280;9862;49.462;11.054;2024-03-06T02:56:51;98026.75;;;9.29;100.00
19447;BME280;9862;49.462;11.054;2024-03-06T02:59:17;98031.63;;;9.26;100.00
19447;BME280;9862;49.462;11.054;2024-03-06T03:01:44;98034.94;;;9.28;100.00
19447;BME280;9862;49.462;11.054;2024-03-06T03:04:11;98037.16;;;9.31;100.00
19447;BME280;9862;49.462;11.054;2024-03-06T03:06:38;98029.38;;;9.23;100.00
19447;BME280;9862;49.462;11.054;2024-03-06T03:09:05;98030.16;;;9.16;100.00
19447;BME280;9862;49.462;11.054;2024-03-06T03:11:32;98021.59;;;9.08;100.00
19447;BME280;9862;49.462;11.054;2024-03-06T03:14:06;98020.94;;;8.99;100.00
19447;BME280;9862;49.462;11.054;2024-03-06T03:16:33;98013.19;;;9.04;100.00
19447;BME280;9862;49.462;11.054;2024-03-06T03:19:01;98015.22;;;9.02;100.00
19447;BME280;9862;49.462;11.054;2024-03-06T03:21:33;98019.50;;;9.03;100.00
19447;BME280;9862;49.462;11.054;2024-03-06T03:24:03;98012.81;;;9.07;100.00
19447;BME280;9862;49.462;11.054;2024-03-06T03:26:32;98016.91;;;9.16;100.00
19447;BME280;9862;49.462;11.054;2024-03-06T03:29:00;98026.50;;;9.11;100.00
19447;BME280;9862;49.462;11.054;2024-03-06T03:31:29;98024.25;;;9.14;100.00
19447;BME280;9862;49.462;11.054;2024-03-06T03:33:56;98025.72;;;9.17;100.00
19447;BME280;9862;49.462;11.054;2024-03-06T03:36:23;98037.94;;;9.11;100.00
19447;BME280;9862;49.462;11.054;2024-03-06T03:38:50;98038.94;;;9.10;100.00
19447;BME280;9862;49.462;11.054;2024-03-06T03:41:16;98033.03;;;9.08;100.00
19447;BME280;9862;49.462;11.054;2024-03-06T03:43:43;98028.53;;;9.09;100.00
19447;BME280;9862;49.462;11.054;2024-03-06T03:46:10;98032.63;;;9.11;100.00
19447;BME280;9862;49.462;11.054;2024-03-06T03:48:39;98031.75;;;8.98;100.00
19447;BME280;9862;49.462;11.054;2024-03-06T03:51:06;98038.31;;;9.02;100.00
19447;BME280;9862;49.462;11.054;2024-03-06T03:53:33;98038.31;;;9.02;100.00
19447;BME280;9862;49.462;11.054;2024-03-06T03:56:00;98030.91;;;8.97;100.00
19447;BME280;9862;49.462;11.054;2024-03-06T03:58:26;98035.22;;;8.98;100.00
19447;BME280;9862;49.462;11.054;2024-03-06T04:00:53;98041.19;;;9.13;100.00
19447;BME280;9862;49.462;11.054;2024-03-06T04:03:21;98052.84;;;9.12;100.00
19447;BME280;9862;49.462;11.054;2024-03-06T04:05:49;98055.69;;;9.11;100.00
19447;BME280;9862;49.462;11.054;2024-03-06T04:08:16;98055.91;;;9.09;100.00
19447;BME280;9862;49.462;11.054;2024-03-06T04:10:43;98050.97;;;9.06;100.00
19447;BME280;9862;49.462;11.054;2024-03-06T04:13:11;98059.56;;;9.08;100.00
19447;BME280;9862;49.462;11.054;2024-03-06T04:15:38;98050.59;;;9.09;100.00
19447;BME280;9862;49.462;11.054;2024-03-06T04:18:07;98057.16;;;9.20;100.00
19447;BME280;9862;49.462;11.054;2024-03-06T04:20:33;98057.16;;;9.20;100.00
19447;BME280;9862;49.462;11.054;2024-03-06T04:23:03;98054.88;;;9.10;100.00
19447;BME280;9862;49.462;11.054;2024-03-06T04:25:30;98061.63;;;9.13;100.00
19447;BME280;9862;49.462;11.054;2024-03-06T04:27:57;98061.41;;;9.08;100.00
19447;BME280;9862;49.462;11.054;2024-03-06T04:30:23;98060.38;;;9.09;100.00
19447;BME280;9862;49.462;11.054;2024-03-06T04:32:50;98060.59;;;9.07;100.00
19447;BME280;9862;49.462;11.054;2024-03-06T04:35:17;98071.38;;;8.99;100.00
19447;BME280;9862;49.462;11.054;2024-03-06T04:37:43;98067.25;;;8.90;100.00
19447;BME280;9862;49.462;11.054;2024-03-06T04:40:12;98070.47;;;8.79;100.00
19447;BME280;9862;49.462;11.054;2024-03-06T04:42:45;98056.53;;;8.77;100.00
19447;BME280;9862;49.462;11.054;2024-03-06T04:45:13;98060.84;;;8.78;100.00
19447;BME280;9862;49.462;11.054;2024-03-06T04:47:40;98058.59;;;8.75;100.00
19447;BME280;9862;49.462;11.054;2024-03-06T04:50:08;98057.81;;;8.81;100.00
19447;BME280;9862;49.462;11.054;2024-03-06T04:52:36;98054.94;;;8.82;100.00
19447;BME280;9862;49.462;11.054;2024-03-06T04:55:02;98057.81;;;8.87;100.00
19447;BME280;9862;49.462;11.054;2024-03-06T04:57:30;98062.31;;;8.87;100.00
19447;BME280;9862;49.462;11.054;2024-03-06T04:59:57;98068.88;;;8.91;100.00
19447;BME280;9862;49.462;11.054;2024-03-06T05:02:24;98066.84;;;8.93;100.00
19447;BME280;9862;49.462;11.054;2024-03-06T05:04:51;98067.69;;;9.00;100.00
19447;BME280;9862;49.462;11.054;2024-03-06T05:07:17;98075.66;;;9.00;100.00
19447;BME280;9862;49.462;11.054;2024-03-06T05:09:44;98083.22;;;9.03;100.00
19447;BME280;9862;49.462;11.054;2024-03-06T05:12:11;98085.47;;;9.06;100.00
19447;BME280;9862;49.462;11.054;2024-03-06T05:14:39;98081.59;;;9.02;100.00
19447;BME280;9862;49.462;11.054;2024-03-06T05:17:06;98089.72;;;8.94;100.00
19447;BME280;9862;49.462;11.054;2024-03-06T05:19:32;98085.22;;;8.95;100.00
19447;BME280;9862;49.462;11.054;2024-03-06T05:22:00;98068.38;;;8.74;100.00
19447;BME280;9862;49.462;11.054;2024-03-06T05:24:27;98067.91;;;8.64;100.00
19447;BME280;9862;49.462;11.054;2024-03-06T05:26:53;98075.25;;;8.62;100.00
19447;BME280;9862;49.462;11.054;2024-03-06T05:29:20;98076.22;;;8.54;100.00
19447;BME280;9862;49.462;11.054;2024-03-06T05:31:48;98079.47;;;8.50;100.00
19447;BME280;9862;49.462;11.054;2024-03-06T05:34:14;98081.31;;;8.56;100.00
19447;BME280;9862;49.462;11.054;2024-03-06T05:36:41;98093.00;;;8.62;100.00
19447;BME280;9862;49.462;11.054;2024-03-06T05:39:08;98067.63;;;8.87;100.00
19447;BME280;9862;49.462;11.054;2024-03-06T05:41:37;98078.94;;;9.02;100.00
19447;BME280;9862;49.462;11.054;2024-03-06T05:44:04;98080.16;;;9.06;100.00
19447;BME280;9862;49.462;11.054;2024-03-06T05:46:31;98088.31;;;8.98;100.00
19447;BME280;9862;49.462;11.054;2024-03-06T05:48:59;98092.16;;;8.96;100.00
19447;BME280;9862;49.462;11.054;2024-03-06T05:51:26;98094.63;;;8.97;100.00
19447;BME280;9862;49.462;11.054;2024-03-06T05:53:53;98087.31;;;8.99;100.00
19447;BME280;9862;49.462;11.054;2024-03-06T05:56:20;98098.13;;;9.04;100.00
19447;BME280;9862;49.462;11.054;2024-03-06T05:58:46;98093.06;;;9.16;100.00
19447;BME280;9862;49.462;11.054;2024-03-06T06:01:15;98101.03;;;9.16;100.00
19447;BME280;9862;49.462;11.054;2024-03-06T06:03:45;98107.56;;;9.13;100.00
19447;BME280;9862;49.462;11.054;2024-03-06T06:06:14;98117.63;;;9.18;100.00
19447;BME280;9862;49.462;11.054;2024-03-06T06:08:41;98119.28;;;9.32;100.00
19447;BME280;9862;49.462;11.054;2024-03-06T06:11:09;98128.47;;;9.30;100.00
19447;BME280;9862;49.462;11.054;2024-03-06T06:13:36;98130.69;;;9.26;100.00
19447;BME280;9862;49.462;11.054;2024-03-06T06:16:03;98124.66;;;9.39;100.00
19447;BME280;9862;49.462;11.054;2024-03-06T06:18:30;98132.44;;;9.47;100.00
19447;BME280;9862;49.462;11.054;2024-03-06T06:20:57;98138.38;;;9.49;100.00
19447;BME280;9862;49.462;11.054;2024-03-06T06:23:26;98145.47;;;9.42;100.00
19447;BME280;9862;49.462;11.054;2024-03-06T06:25:53;98147.94;;;9.43;100.00
19447;BME280;9862;49.462;11.054;2024-03-06T06:28:20;98151.56;;;9.36;100.00
19447;BME280;9862;49.462;11.054;2024-03-06T06:30:48;98159.34;;;9.31;100.00
19447;BME280;9862;49.462;11.054;2024-03-06T06:33:17;98158.50;;;9.30;100.00
19447;BME280;9862;49.462;11.054;2024-03-06T06:35:44;98167.47;;;9.23;100.00
19447;BME280;9862;49.462;11.054;2024-03-06T06:38:11;98166.22;;;9.18;100.00
19447;BME280;9862;49.462;11.054;2024-03-06T06:40:39;98168.22;;;9.10;100.00
19447;BME280;9862;49.462;11.054;2024-03-06T06:43:06;98171.44;;;9.05;100.00
19447;BME280;9862;49.462;11.054;2024-03-06T06:45:32;98167.34;;;9.03;100.00
19447;BME280;9862;49.462;11.054;2024-03-06T06:47:59;98167.75;;;9.06;100.00
19447;BME280;9862;49.462;11.054;2024-03-06T06:50:26;98164.34;;;9.12;100.00
19447;BME280;9862;49.462;11.054;2024-03-06T06:52:52;98159.91;;;9.20;100.00
19447;BME280;9862;49.462;11.054;2024-03-06T06:55:19;98169.50;;;9.21;100.00
19447;BME280;9862;49.462;11.054;2024-03-06T06:57:49;98174.38;;;9.17;100.00
19447;BME280;9862;49.462;11.054;2024-03-06T07:00:17;98163.16;;;9.22;100.00
19447;BME280;9862;49.462;11.054;2024-03-06T07:02:44;98178.84;;;9.16;100.00
19447;BME280;9862;49.462;11.054;2024-03-06T07:05:11;98175.16;;;9.11;100.00
19447;BME280;9862;49.462;11.054;2024-03-06T07:07:38;98168.53;;;9.28;100.00
19447;BME280;9862;49.462;11.054;2024-03-06T07:10:06;98172.00;;;9.29;100.00
19447;BME280;9862;49.462;11.054;2024-03-06T07:12:33;98180.19;;;9.34;100.00
19447;BME280;9862;49.462;11.054;2024-03-06T07:15:02;98191.81;;;9.33;100.00
19447;BME280;9862;49.462;11.054;2024-03-06T07:17:28;98193.69;;;9.39;100.00
19447;BME280;9862;49.462;11.054;2024-03-06T07:19:55;98189.63;;;9.43;100.00
19447;BME280;9862;49.462;11.054;2024-03-06T07:22:22;98191.41;;;9.29;100.00
19447;BME280;9862;49.462;11.054;2024-03-06T07:24:49;98194.53;;;9.39;100.00
19447;BME280;9862;49.462;11.054;2024-03-06T07:27:16;98193.50;;;9.40;100.00
19447;BME280;9862;49.462;11.054;2024-03-06T07:29:43;98201.41;;;9.34;100.00
19447;BME280;9862;49.462;11.054;2024-03-06T07:32:11;98203.88;;;9.29;100.00
19447;BME280;9862;49.462;11.054;2024-03-06T07:34:38;98196.91;;;9.28;100.00
19447;BME280;9862;49.462;11.054;2024-03-06T07:37:05;98195.22;;;9.20;100.00
19447;BME280;9862;49.462;11.054;2024-03-06T07:39:31;98193.84;;;9.31;100.00
19447;BME280;9862;49.462;11.054;2024-03-06T07:42:00;98193.09;;;9.37;100.00
19447;BME280;9862;49.462;11.054;2024-03-06T07:44:27;98191.06;;;9.45;100.00
19447;BME280;9862;49.462;11.054;2024-03-06T07:46:54;98196.25;;;9.60;100.00
19447;BME280;9862;49.462;11.054;2024-03-06T07:49:22;98198.31;;;9.71;100.00
19447;BME280;9862;49.462;11.054;2024-03-06T07:51:49;98201.59;;;9.73;100.00
19447;BME280;9862;49.462;11.054;2024-03-06T07:54:16;98207.78;;;9.81;100.00
19447;BME280;9862;49.462;11.054;2024-03-06T07:56:43;98203.91;;;9.90;100.00
19447;BME280;9862;49.462;11.054;2024-03-06T07:59:09;98209.06;;;9.98;100.00
19447;BME280;9862;49.462;11.054;2024-03-06T08:01:37;98204.16;;;10.01;100.00
19447;BME280;9862;49.462;11.054;2024-03-06T08:04:04;98210.72;;;10.12;100.00
19447;BME280;9862;49.462;11.054;2024-03-06T08:06:32;98203.56;;;10.19;100.00
19447;BME280;9862;49.462;11.054;2024-03-06T08:08:59;98210.59;;;10.34;100.00
19447;BME280;9862;49.462;11.054;2024-03-06T08:11:27;98232.06;;;10.32;100.00
19447;BME280;9862;49.462;11.054;2024-03-06T08:13:57;98227.38;;;10.41;100.00
19447;BME280;9862;49.462;11.054;2024-03-06T08:16:24;98236.38;;;10.40;100.00
19447;BME280;9862;49.462;11.054;2024-03-06T08:18:51;98246.44;;;10.57;100.00
19447;BME280;9862;49.462;11.054;2024-03-06T08:21:18;98250.53;;;10.47;100.00
19447;BME280;9862;49.462;11.054;2024-03-06T08:23:47;98247.66;;;10.55;100.00
19447;BME280;9862;49.462;11.054;2024-03-06T08:26:13;98256.63;;;10.41;100.00
19447;BME280;9862;49.462;11.054;2024-03-06T08:28:40;98265.81;;;10.31;100.00
19447;BME280;9862;49.462;11.054;2024-03-06T08:31:07;98255.56;;;10.22;100.00
19447;BME280;9862;49.462;11.054;2024-03-06T08:33:34;98260.63;;;10.10;100.00
19447;BME280;9862;49.462;11.054;2024-03-06T08:36:01;98264.31;;;10.09;100.00
19447;BME280;9862;49.462;11.054;2024-03-06T08:38:27;98266.56;;;10.12;100.00
19447;BME280;9862;49.462;11.054;2024-03-06T08:40:55;98275.38;;;10.19;100.00
19447;BME280;9862;49.462;11.054;2024-03-06T08:43:22;98279.06;;;10.18;100.00
19447;BME280;9862;49.462;11.054;2024-03-06T08:45:49;98274.38;;;10.20;100.00
19447;BME280;9862;49.462;11.054;2024-03-06T08:48:15;98278.25;;;10.18;100.00
19447;BME280;9862;49.462;11.054;2024-03-06T08:50:42;98285.47;;;10.30;100.00
19447;BME280;9862;49.462;11.054;2024-03-06T08:53:09;98294.72;;;10.35;100.00
19447;BME280;9862;49.462;11.054;2024-03-06T08:55:35;98287.75;;;10.34;100.00
19447;BME280;9862;49.462;11.054;2024-03-06T08:58:04;98293.06;;;10.40;100.00
19447;BME280;9862;49.462;11.054;2024-03-06T09:00:30;98292.69;;;10.43;100.00
19447;BME280;9862;49.462;11.054;2024-03-06T09:02:57;98291.66;;;10.44;100.00
19447;BME280;9862;49.462;11.054;2024-03-06T09:05:24;98301.69;;;10.42;100.00
19447;BME280;9862;49.462;11.054;2024-03-06T09:07:51;98302.91;;;10.40;100.00
19447;BME280;9862;49.462;11.054;2024-03-06T09:10:18;98311.94;;;10.52;100.00
19447;BME280;9862;49.462;11.054;2024-03-06T09:12:45;98314.19;;;10.48;100.00
19447;BME280;9862;49.462;11.054;2024-03-06T09:15:14;98309.88;;;10.47;100.00
19447;BME280;9862;49.462;11.054;2024-03-06T09:17:41;98317.66;;;10.49;100.00
19447;BME280;9862;49.462;11.054;2024-03-06T09:20:08;98318.06;;;10.46;100.00
19447;BME280;9862;49.462;11.054;2024-03-06T09:22:36;98317.66;;;10.49;100.00
19447;BME280;9862;49.462;11.054;2024-03-06T09:25:04;98309.91;;;10.54;100.00
19447;BME280;9862;49.462;11.054;2024-03-06T09:27:34;98314.81;;;10.57;100.00
19447;BME280;9862;49.462;11.054;2024-03-06T09:30:01;98313.00;;;10.77;100.00
19447;BME280;9862;49.462;11.054;2024-03-06T09:32:30;98315.88;;;10.76;100.00
19447;BME280;9862;49.462;11.054;2024-03-06T09:34:58;98311.97;;;10.78;100.00
19447;BME280;9862;49.462;11.054;2024-03-06T09:37:24;98317.72;;;10.88;100.00
19447;BME280;9862;49.462;11.054;2024-03-06T09:39:51;98319.59;;;10.95;100.00
19447;BME280;9862;49.462;11.054;2024-03-06T09:42:18;98327.16;;;10.98;100.00
19447;BME280;9862;49.462;11.054;2024-03-06T09:44:44;98315.88;;;11.09;100.00
19447;BME280;9862;49.462;11.054;2024-03-06T09:47:13;98324.69;;;11.09;100.00
19447;BME280;9862;49.462;11.054;2024-03-06T09:49:42;98335.38;;;11.16;100.00
19447;BME280;9862;49.462;11.054;2024-03-06T09:52:09;98333.53;;;11.10;100.00
19447;BME280;9862;49.462;11.054;2024-03-06T09:54:37;98334.13;;;11.25;100.00
19447;BME280;9862;49.462;11.054;2024-03-06T09:57:04;98327.19;;;11.24;100.00
19447;BME280;9862;49.462;11.054;2024-03-06T09:59:31;98333.94;;;11.33;100.00
19447;BME280;9862;49.462;11.054;2024-03-06T10:01:58;98327.16;;;11.44;100.00
19447;BME280;9862;49.462;11.054;2024-03-06T10:04:28;98318.72;;;11.67;100.00
19447;BME280;9862;49.462;11.054;2024-03-06T10:06:57;98326.31;;;11.63;100.00
19447;BME280;9862;49.462;11.054;2024-03-06T10:09:24;98327.16;;;11.51;100.00
19447;BME280;9862;49.462;11.054;2024-03-06T10:11:52;98330.03;;;11.49;100.00
19447;BME280;9862;49.462;11.054;2024-03-06T10:14:19;98328.78;;;11.45;100.00
19447;BME280;9862;49.462;11.054;2024-03-06T10:16:53;98330.66;;;11.44;100.00
19447;BME280;9862;49.462;11.054;2024-03-06T10:19:22;98333.28;;;11.58;100.00
19447;BME280;9862;49.462;11.054;2024-03-06T10:21:50;98331.47;;;11.52;100.00
19447;BME280;9862;49.462;11.054;2024-03-06T10:24:20;98328.81;;;11.52;100.00
19447;BME280;9862;49.462;11.054;2024-03-06T10:26:49;98329.78;;;11.57;100.00
19447;BME280;9862;49.462;11.054;2024-03-06T10:29:16;98331.44;;;11.65;100.00
19447;BME280;9862;49.462;11.054;2024-03-06T10:31:51;98336.97;;;11.70;100.00
19447;BME280;9862;49.462;11.054;2024-03-06T10:34:18;98328.97;;;11.70;100.00
19447;BME280;9862;49.462;11.054;2024-03-06T10:36:45;98334.31;;;11.70;100.00
19447;BME280;9862;49.462;11.054;2024-03-06T10:39:12;98333.28;;;11.71;100.00
19447;BME280;9862;49.462;11.054;2024-03-06T10:41:42;98342.69;;;11.87;100.00
19447;BME280;9862;49.462;11.054;2024-03-06T10:44:11;98337.56;;;11.85;100.00
19447;BME280;9862;49.462;11.054;2024-03-06T10:46:43;98328.38;;;11.81;100.00
19447;BME280;9862;49.462;11.054;2024-03-06T10:49:13;98335.28;;;11.95;100.00
19447;BME280;9862;49.462;11.054;2024-03-06T10:51:40;98347.00;;;11.94;100.00
19447;BME280;9862;49.462;11.054;2024-03-06T10:54:09;98342.09;;;11.91;100.00
19447;BME280;9862;49.462;11.054;2024-03-06T10:56:38;98344.75;;;11.85;100.00
19447;BME280;9862;49.462;11.054;2024-03-06T10:59:10;98339.81;;;11.75;100.00
19447;BME280;9862;49.462;11.054;2024-03-06T11:01:38;98352.53;;;11.73;100.00
19447;BME280;9862;49.462;11.054;2024-03-06T11:04:05;98348.41;;;11.77;100.00
19447;BME280;9862;49.462;11.054;2024-03-06T11:06:32;98346.00;;;11.82;100.00
19447;BME280;9862;49.462;11.054;2024-03-06T11:08:59;98342.69;;;11.87;100.00
19447;BME280;9862;49.462;11.054;2024-03-06T11:11:27;98360.31;;;11.94;100.00
19447;BME280;9862;49.462;11.054;2024-03-06T11:14:00;98354.75;;;12.02;100.00
19447;BME280;9862;49.462;11.054;2024-03-06T11:16:29;98356.22;;;11.98;100.00
19447;BME280;9862;49.462;11.054;2024-03-06T11:19:05;98351.72;;;11.99;100.00
19447;BME280;9862;49.462;11.054;2024-03-06T11:21:32;98356.22;;;11.98;100.00
19447;BME280;9862;49.462;11.054;2024-03-06T11:24:16;98351.94;;;11.91;100.00
19447;BME280;9862;49.462;11.054;2024-03-06T11:26:46;98347.84;;;11.82;100.00
19447;BME280;9862;49.462;11.054;2024-03-06T11:29:15;98346.00;;;11.89;100.00
19447;BME280;9862;49.462;11.054;2024-03-06T11:32:05;98352.38;;;11.81;100.00
19447;BME280;9862;49.462;11.054;2024-03-06T11:34:33;98347.59;;;11.76;100.00
19447;BME280;9862;49.462;11.054;2024-03-06T11:37:03;98345.19;;;11.68;100.00
19447;BME280;9862;49.462;11.054;2024-03-06T11:39:33;98349.69;;;11.68;100.00
19447;BME280;9862;49.462;11.054;2024-03-06T11:42:02;98352.53;;;11.73;100.00
19447;BME280;9862;49.462;11.054;2024-03-06T11:44:31;98350.53;;;11.68;100.00
19447;BME280;9862;49.462;11.054;2024-03-06T11:47:01;98354.41;;;11.72;100.00
19447;BME280;9862;49.462;11.054;2024-03-06T11:49:30;98351.34;;;11.69;100.00
19447;BME280;9862;49.462;11.054;2024-03-06T11:52:00;98356.25;;;11.72;100.00
19447;BME280;9862;49.462;11.054;2024-03-06T11:54:29;98350.50;;;11.75;100.00
19447;BME280;9862;49.462;11.054;2024-03-06T11:56:58;98351.09;;;11.77;100.00
19447;BME280;9862;49.462;11.054;2024-03-06T11:59:25;98353.56;;;11.85;100.00
19447;BME280;9862;49.462;11.054;2024-03-06T12:01:52;98349.28;;;11.84;100.00
19447;BME280;9862;49.462;11.054;2024-03-06T12:04:21;98356.63;;;11.75;100.00
19447;BME280;9862;49.462;11.054;2024-03-06T12:06:49;98357.28;;;11.84;100.00
19447;BME280;9862;49.462;11.054;2024-03-06T12:09:17;98362.38;;;11.79;100.00
19447;BME280;9862;49.462;11.054;2024-03-06T12:11:43;98354.19;;;11.74;100.00
19447;BME280;9862;49.462;11.054;2024-03-06T12:14:14;98352.75;;;11.78;100.00
19447;BME280;9862;49.462;11.054;2024-03-06T12:16:43;98354.22;;;11.87;100.00
19447;BME280;9862;49.462;11.054;2024-03-06T12:19:10;98350.91;;;11.85;100.00
19447;BME280;9862;49.462;11.054;2024-03-06T12:21:39;98346.22;;;11.87;100.00
19447;BME280;9862;49.462;11.054;2024-03-06T12:24:07;98351.13;;;11.84;100.00
19447;BME280;9862;49.462;11.054;2024-03-06T12:26:34;98354.81;;;11.83;100.00
19447;BME280;9862;49.462;11.054;2024-03-06T12:29:07;98358.91;;;11.85;100.00
19447;BME280;9862;49.462;11.054;2024-03-06T12:31:36;98360.75;;;11.78;100.00
19447;BME280;9862;49.462;11.054;2024-03-06T12:34:03;98353.75;;;11.77;100.00
19447;BME280;9862;49.462;11.054;2024-03-06T12:36:30;98347.00;;;11.74;100.00
19447;BME280;9862;49.462;11.054;2024-03-06T12:39:01;98344.75;;;11.85;100.00
19447;BME280;9862;49.462;11.054;2024-03-06T12:41:29;98349.69;;;11.81;100.00
19447;BME280;9862;49.462;11.054;2024-03-06T12:43:56;98353.56;;;11.85;100.00
19447;BME280;9862;49.462;11.054;2024-03-06T12:46:23;98349.69;;;11.81;100.00
19447;BME280;9862;49.462;11.054;2024-03-06T12:48:51;98355.41;;;11.91;100.00
19447;BME280;9862;49.462;11.054;2024-03-06T12:51:18;98353.19;;;11.88;100.00
19447;BME280;9862;49.462;11.054;2024-03-06T12:53:45;98347.41;;;11.85;100.00
19447;BME280;9862;49.462;11.054;2024-03-06T12:56:14;98352.97;;;11.90;100.00